createdAt,value
2017-05-17T00:00:19.056Z,16.60
2017-05-17T00:02:48.832Z,16.60
2017-05-17T00:05:17.903Z,16.50
2017-05-17T00:07:46.946Z,16.50
2017-05-17T00:10:16.755Z,16.50
2017-05-17T00:12:45.797Z,16.50
2017-05-17T00:15:15.103Z,16.50
2017-05-17T00:17:44.137Z,16.50
2017-05-17T00:20:13.203Z,16.50
2017-05-17T00:22:42.237Z,16.40
2017-05-17T00:25:11.290Z,16.40
2017-05-17T00:27:40.367Z,16.40
2017-05-17T00:30:09.403Z,16.40
2017-05-17T00:32:38.471Z,16.40
2017-05-17T00:35:07.541Z,16.40
2017-05-17T00:37:48.310Z,16.40
2017-05-17T00:40:35.281Z,16.40
2017-05-17T00:43:22.252Z,16.40
2017-05-17T00:46:09.149Z,16.30
2017-05-17T00:48:56.264Z,16.30
2017-05-17T00:51:43.211Z,16.30
2017-05-17T00:54:18.223Z,16.40
2017-05-17T00:56:47.293Z,16.40
2017-05-17T00:59:16.356Z,16.40
2017-05-17T01:01:45.792Z,16.40
2017-05-17T01:04:15.829Z,16.30
2017-05-17T01:06:44.907Z,16.40
2017-05-17T01:09:13.951Z,16.40
2017-05-17T01:11:43.007Z,16.40
2017-05-17T01:14:12.417Z,16.40
2017-05-17T01:16:42.191Z,16.40
2017-05-17T01:19:11.271Z,16.40
2017-05-17T01:21:40.312Z,16.40
2017-05-17T01:24:10.120Z,16.30
2017-05-17T01:26:39.902Z,16.40
2017-05-17T01:29:08.976Z,16.30
2017-05-17T01:31:38.017Z,16.30
2017-05-17T01:34:07.853Z,16.30
2017-05-17T01:36:36.878Z,16.30
2017-05-17T01:39:05.966Z,16.30
2017-05-17T01:41:35.015Z,16.30
2017-05-17T01:44:04.824Z,16.30
2017-05-17T01:46:34.222Z,16.30
2017-05-17T01:49:03.282Z,16.30
2017-05-17T01:51:32.346Z,16.30
2017-05-17T01:54:01.379Z,16.30
2017-05-17T01:56:30.442Z,16.30
2017-05-17T01:58:59.525Z,16.30
2017-05-17T02:01:28.823Z,16.20
2017-05-17T02:03:57.892Z,16.20
2017-05-17T02:06:26.973Z,16.20
2017-05-17T02:08:56.012Z,16.20
2017-05-17T02:11:25.806Z,16.10
2017-05-17T02:13:55.648Z,16.10
2017-05-17T02:16:24.682Z,16.10
2017-05-17T02:18:53.743Z,16.10
2017-05-17T02:21:22.824Z,16.10
2017-05-17T02:23:52.596Z,16.00
2017-05-17T02:26:21.658Z,16.00
2017-05-17T02:28:50.696Z,16.00
2017-05-17T02:31:19.764Z,16.00
2017-05-17T02:33:48.798Z,16.00
2017-05-17T02:36:18.595Z,15.90
2017-05-17T02:38:47.627Z,15.80
2017-05-17T02:41:16.695Z,15.80
2017-05-17T02:43:45.763Z,15.80
2017-05-17T02:46:15.110Z,15.70
2017-05-17T02:48:44.197Z,15.70
2017-05-17T02:51:14.228Z,15.70
2017-05-17T02:53:43.296Z,15.60
2017-05-17T02:56:12.383Z,15.60
2017-05-17T02:58:41.412Z,15.60
2017-05-17T03:01:11.233Z,15.60
2017-05-17T03:03:40.281Z,15.60
2017-05-17T03:06:09.363Z,15.60
2017-05-17T03:08:38.423Z,15.50
2017-05-17T03:11:07.712Z,15.60
2017-05-17T03:13:37.509Z,15.50
2017-05-17T03:16:07.319Z,15.50
2017-05-17T03:18:36.389Z,15.60
2017-05-17T03:21:05.427Z,15.60
2017-05-17T03:23:34.496Z,15.60
2017-05-17T03:26:04.631Z,15.60
2017-05-17T03:28:33.724Z,15.60
2017-05-17T03:31:03.536Z,15.50
2017-05-17T03:33:33.321Z,15.60
2017-05-17T03:36:02.416Z,15.60
2017-05-17T03:38:31.456Z,15.60
2017-05-17T03:41:00.534Z,15.60
2017-05-17T03:43:30.342Z,15.60
2017-05-17T03:46:00.121Z,15.60
2017-05-17T03:48:29.204Z,15.70
2017-05-17T03:50:58.234Z,15.70
2017-05-17T03:53:27.344Z,15.70
2017-05-17T03:55:56.410Z,15.70
2017-05-17T03:58:25.446Z,15.70
2017-05-17T04:00:55.267Z,15.70
2017-05-17T04:03:24.700Z,15.70
2017-05-17T04:05:54.720Z,15.80
2017-05-17T04:08:23.829Z,15.80
2017-05-17T04:10:53.184Z,15.90
2017-05-17T04:13:22.959Z,15.90
2017-05-17T04:15:52.023Z,16.00
2017-05-17T04:18:21.095Z,16.00
2017-05-17T04:20:50.162Z,16.10
2017-05-17T04:23:19.974Z,16.20
2017-05-17T04:25:49.043Z,16.20
2017-05-17T04:28:18.071Z,16.20
2017-05-17T04:30:47.875Z,16.30
2017-05-17T04:33:16.975Z,16.30
2017-05-17T04:35:46.764Z,16.40
2017-05-17T04:38:16.108Z,16.40
2017-05-17T04:40:45.920Z,16.50
2017-05-17T04:43:15.726Z,16.50
2017-05-17T04:45:45.915Z,16.50
2017-05-17T04:48:14.986Z,16.60
2017-05-17T04:50:44.252Z,16.70
2017-05-17T04:53:13.343Z,16.80
2017-05-17T04:55:42.392Z,16.90
2017-05-17T04:58:11.459Z,16.90
2017-05-17T05:00:40.544Z,17.00
2017-05-17T05:03:09.584Z,17.00
2017-05-17T05:05:38.661Z,17.20
2017-05-17T05:08:07.701Z,17.20
2017-05-17T05:10:37.531Z,17.30
2017-05-17T05:13:06.554Z,17.30
2017-05-17T05:15:35.620Z,17.40
2017-05-17T05:18:04.719Z,17.50
2017-05-17T05:20:33.771Z,17.60
2017-05-17T05:23:02.836Z,17.60
2017-05-17T05:25:31.911Z,17.70
2017-05-17T05:28:00.942Z,17.80
2017-05-17T05:30:30.010Z,17.90
2017-05-17T05:32:59.045Z,18.00
2017-05-17T05:35:28.154Z,18.00
2017-05-17T05:37:57.251Z,18.10
2017-05-17T05:40:26.738Z,18.10
2017-05-17T05:42:55.817Z,18.10
2017-05-17T05:45:24.845Z,18.10
2017-05-17T05:47:53.926Z,18.10
2017-05-17T05:50:22.984Z,18.20
2017-05-17T05:52:52.052Z,18.40
2017-05-17T05:55:21.097Z,18.40
2017-05-17T05:57:50.147Z,18.50
2017-05-17T06:00:19.954Z,18.50
2017-05-17T06:02:49.265Z,18.60
2017-05-17T06:05:18.338Z,18.60
2017-05-17T06:07:47.375Z,18.70
2017-05-17T06:10:16.452Z,18.80
2017-05-17T06:12:45.530Z,18.90
2017-05-17T06:15:15.316Z,18.90
2017-05-17T06:17:45.393Z,18.90
2017-05-17T06:20:14.732Z,19.00
2017-05-17T06:22:43.820Z,19.00
2017-05-17T06:25:12.892Z,19.10
2017-05-17T06:27:41.945Z,19.10
2017-05-17T06:30:11.024Z,19.10
2017-05-17T06:32:41.190Z,19.20
2017-05-17T06:35:10.257Z,19.30
2017-05-17T06:37:40.303Z,19.40
2017-05-17T06:40:09.391Z,19.50
2017-05-17T06:42:38.428Z,19.60
2017-05-17T06:45:07.552Z,19.60
2017-05-17T06:47:37.188Z,19.60
2017-05-17T06:50:07.006Z,19.70
2017-05-17T06:52:36.058Z,19.80
2017-05-17T06:55:05.127Z,19.90
2017-05-17T06:57:34.164Z,19.90
2017-05-17T07:00:04.004Z,19.90
2017-05-17T07:02:33.099Z,20.00
2017-05-17T07:05:02.169Z,20.00
2017-05-17T07:07:31.199Z,20.00
2017-05-17T07:10:00.270Z,20.10
2017-05-17T07:12:30.054Z,20.20
2017-05-17T07:14:59.120Z,20.20
2017-05-17T07:17:28.148Z,20.20
2017-05-17T07:19:57.223Z,20.30
2017-05-17T07:22:26.307Z,20.40
2017-05-17T07:24:55.355Z,20.50
2017-05-17T07:27:24.669Z,20.50
2017-05-17T07:29:53.974Z,20.50
2017-05-17T07:32:23.376Z,20.60
2017-05-17T07:34:52.414Z,20.70
2017-05-17T07:37:21.773Z,20.70
2017-05-17T07:39:51.570Z,20.70
2017-05-17T07:42:21.391Z,20.80
2017-05-17T07:44:50.704Z,20.90
2017-05-17T07:47:19.744Z,21.00
2017-05-17T07:49:48.828Z,21.00
2017-05-17T07:52:17.870Z,21.00
2017-05-17T07:54:47.700Z,21.00
2017-05-17T07:57:17.000Z,21.10
2017-05-17T07:59:46.080Z,21.20
2017-05-17T08:02:15.128Z,21.30
2017-05-17T08:04:44.193Z,21.30
2017-05-17T08:07:13.261Z,21.40
2017-05-17T08:09:42.584Z,21.40
2017-05-17T08:12:11.643Z,21.40
2017-05-17T08:14:40.703Z,21.50
2017-05-17T08:17:09.767Z,21.60
2017-05-17T08:19:38.834Z,21.60
2017-05-17T08:22:07.910Z,21.70
2017-05-17T08:24:36.962Z,21.70
2017-05-17T08:27:06.025Z,21.80
2017-05-17T08:29:35.056Z,21.80
2017-05-17T08:32:04.129Z,21.80
2017-05-17T08:34:33.222Z,21.90
2017-05-17T08:37:02.998Z,21.90
2017-05-17T08:39:32.352Z,21.80
2017-05-17T08:42:01.396Z,21.80
2017-05-17T08:44:30.446Z,21.90
2017-05-17T08:46:59.487Z,21.90
2017-05-17T08:49:28.834Z,22.00
2017-05-17T08:51:58.611Z,22.00
2017-05-17T08:54:27.674Z,22.10
2017-05-17T08:56:56.711Z,22.20
2017-05-17T08:59:25.783Z,22.30
2017-05-17T09:01:54.818Z,22.40
2017-05-17T09:04:24.641Z,22.40
2017-05-17T09:06:53.943Z,22.50
2017-05-17T09:09:23.032Z,22.50
2017-05-17T09:11:52.831Z,22.50
2017-05-17T09:14:22.154Z,22.60
2017-05-17T09:16:51.194Z,22.70
2017-05-17T09:19:20.265Z,22.70
2017-05-17T09:21:49.387Z,22.80
2017-05-17T09:24:18.420Z,22.90
2017-05-17T09:26:48.227Z,22.80
2017-05-17T09:29:17.547Z,22.90
2017-05-17T09:31:46.607Z,23.00
2017-05-17T09:34:15.639Z,23.00
2017-05-17T09:36:44.723Z,23.00
2017-05-17T09:39:14.492Z,23.10
2017-05-17T09:41:43.552Z,23.10
2017-05-17T09:44:12.621Z,23.20
2017-05-17T09:46:42.396Z,23.20
2017-05-17T09:49:11.457Z,23.40
2017-05-17T09:51:40.482Z,23.50
2017-05-17T09:54:09.560Z,23.50
2017-05-17T09:56:38.592Z,23.50
2017-05-17T09:59:07.667Z,23.60
2017-05-17T10:01:36.705Z,23.60
2017-05-17T10:04:06.516Z,23.70
2017-05-17T10:06:36.291Z,23.80
2017-05-17T10:09:05.374Z,23.80
2017-05-17T10:11:34.421Z,23.90
2017-05-17T10:14:04.454Z,23.90
2017-05-17T10:16:33.524Z,24.00
2017-05-17T10:19:03.299Z,24.00
2017-05-17T10:21:32.363Z,24.10
2017-05-17T10:24:01.401Z,24.20
2017-05-17T10:26:30.756Z,24.20
2017-05-17T10:28:59.820Z,24.00
2017-05-17T10:31:28.860Z,24.10
2017-05-17T10:33:57.927Z,24.20
2017-05-17T10:36:27.952Z,24.30
2017-05-17T10:38:57.750Z,24.30
2017-05-17T10:41:27.779Z,24.30
2017-05-17T10:43:57.612Z,24.20
2017-05-17T10:46:26.644Z,24.40
2017-05-17T10:48:55.714Z,24.60
2017-05-17T10:51:25.088Z,24.70
2017-05-17T10:53:54.140Z,24.80
2017-05-17T10:56:23.497Z,24.80
2017-05-17T10:58:52.586Z,24.70
2017-05-17T11:01:21.647Z,24.70
2017-05-17T11:03:50.685Z,24.80
2017-05-17T11:06:19.760Z,24.90
2017-05-17T11:08:49.543Z,25.00
2017-05-17T11:11:18.617Z,25.10
2017-05-17T11:13:47.663Z,25.20
2017-05-17T11:16:17.498Z,25.10
2017-05-17T11:18:46.522Z,25.00
2017-05-17T11:21:15.596Z,24.90
2017-05-17T11:23:44.658Z,25.10
2017-05-17T11:26:14.479Z,25.20
2017-05-17T11:28:43.507Z,25.20
2017-05-17T11:31:12.571Z,25.30
2017-05-17T11:33:41.876Z,25.40
2017-05-17T11:36:10.958Z,25.40
2017-05-17T11:38:40.738Z,25.30
2017-05-17T11:41:10.038Z,25.20
2017-05-17T11:43:39.394Z,25.30
2017-05-17T11:46:08.472Z,25.40
2017-05-17T11:48:38.258Z,25.60
2017-05-17T11:51:07.338Z,25.60
2017-05-17T11:53:36.381Z,25.90
2017-05-17T11:56:05.569Z,26.10
2017-05-17T11:58:35.599Z,26.10
2017-05-17T12:01:04.655Z,26.30
2017-05-17T12:03:33.711Z,26.50
2017-05-17T12:06:02.987Z,26.50
2017-05-17T12:08:32.792Z,26.50
2017-05-17T12:11:02.563Z,26.60
2017-05-17T12:13:31.638Z,26.70
2017-05-17T12:16:00.671Z,26.80
2017-05-17T12:18:30.003Z,26.90
2017-05-17T12:20:59.083Z,26.80
2017-05-17T12:23:28.856Z,26.60
2017-05-17T12:25:57.941Z,26.70
2017-05-17T12:28:26.977Z,26.70
2017-05-17T12:30:56.040Z,26.70
2017-05-17T12:33:25.104Z,26.90
2017-05-17T12:35:54.141Z,27.20
2017-05-17T12:38:23.221Z,27.20
2017-05-17T12:40:52.270Z,27.40
2017-05-17T12:43:22.094Z,27.50
2017-05-17T12:45:51.136Z,27.50
2017-05-17T12:48:20.198Z,27.60
2017-05-17T12:50:49.278Z,27.70
2017-05-17T12:53:19.050Z,27.40
2017-05-17T12:55:48.133Z,27.30
2017-05-17T12:58:17.173Z,27.60
2017-05-17T13:00:47.007Z,27.90
2017-05-17T13:03:16.291Z,28.40
2017-05-17T13:05:46.414Z,28.80
2017-05-17T13:08:15.489Z,29.40
2017-05-17T13:10:44.533Z,29.60
2017-05-17T13:13:13.571Z,29.00
2017-05-17T13:15:42.911Z,29.10
2017-05-17T13:18:11.948Z,29.20
2017-05-17T13:20:41.015Z,29.50
2017-05-17T13:23:10.065Z,30.00
2017-05-17T13:25:39.125Z,30.40
2017-05-17T13:28:08.164Z,30.30
2017-05-17T13:30:37.979Z,30.70
2017-05-17T13:33:08.003Z,30.40
2017-05-17T13:35:37.813Z,30.70
2017-05-17T13:38:06.871Z,30.30
2017-05-17T13:40:35.955Z,29.80
2017-05-17T13:43:05.012Z,29.70
2017-05-17T13:45:34.068Z,29.90
2017-05-17T13:48:03.882Z,30.30
2017-05-17T13:50:32.982Z,30.50
2017-05-17T13:53:02.069Z,30.00
2017-05-17T13:55:31.105Z,30.40
2017-05-17T13:58:00.503Z,30.70
2017-05-17T14:00:29.567Z,31.50
2017-05-17T14:02:58.600Z,31.50
2017-05-17T14:05:27.652Z,30.70
2017-05-17T14:07:56.845Z,30.60
2017-05-17T14:10:25.908Z,31.00
2017-05-17T14:12:55.283Z,31.50
2017-05-17T14:15:24.589Z,32.10
2017-05-17T14:17:53.648Z,33.10
2017-05-17T14:20:22.683Z,32.90
2017-05-17T14:22:52.415Z,32.50
2017-05-17T14:25:21.484Z,31.30
2017-05-17T14:27:50.558Z,31.40
2017-05-17T14:30:19.643Z,31.40
2017-05-17T14:32:48.685Z,32.00
2017-05-17T14:35:17.759Z,32.80
2017-05-17T14:37:46.794Z,32.60
2017-05-17T14:40:15.883Z,33.00
2017-05-17T14:42:44.928Z,33.30
2017-05-17T14:45:15.069Z,33.10
2017-05-17T14:47:44.144Z,32.30
2017-05-17T14:50:13.959Z,33.00
2017-05-17T14:52:43.011Z,33.60
2017-05-17T14:55:12.043Z,33.90
2017-05-17T14:57:41.851Z,34.20
2017-05-17T15:00:10.891Z,33.50
2017-05-17T15:02:39.963Z,33.90
2017-05-17T15:05:09.057Z,34.10
2017-05-17T15:07:38.822Z,34.10
2017-05-17T15:10:07.916Z,34.20
2017-05-17T15:12:36.951Z,34.50
2017-05-17T15:15:06.761Z,34.60
2017-05-17T15:17:36.538Z,35.10
2017-05-17T15:20:05.616Z,35.00
2017-05-17T15:22:34.635Z,34.40
2017-05-17T15:25:04.476Z,34.90
2017-05-17T15:27:34.256Z,34.80
2017-05-17T15:30:03.345Z,34.30
2017-05-17T15:32:32.438Z,34.70
2017-05-17T15:35:01.799Z,34.80
2017-05-17T15:37:30.880Z,34.70
2017-05-17T15:40:00.691Z,34.40
2017-05-17T15:42:29.747Z,34.80
2017-05-17T15:44:58.804Z,34.20
2017-05-17T15:47:27.867Z,33.80
2017-05-17T15:49:56.922Z,34.00
2017-05-17T15:52:25.995Z,33.90
2017-05-17T15:54:55.045Z,34.00
2017-05-17T15:57:24.126Z,34.20
2017-05-17T15:59:53.209Z,34.10
2017-05-17T16:02:22.291Z,34.10
2017-05-17T16:04:51.336Z,34.40
2017-05-17T16:07:20.400Z,34.70
2017-05-17T16:09:49.477Z,34.50
2017-05-17T16:12:18.515Z,34.80
2017-05-17T16:14:47.583Z,34.20
2017-05-17T16:17:16.619Z,34.20
2017-05-17T16:19:46.431Z,34.00
2017-05-17T16:22:16.204Z,34.60
2017-05-17T16:24:45.563Z,34.90
2017-05-17T16:27:14.617Z,34.80
2017-05-17T16:29:43.891Z,35.10
2017-05-17T16:32:12.983Z,35.90
2017-05-17T16:34:42.003Z,36.00
2017-05-17T16:37:11.349Z,36.20
2017-05-17T16:39:40.416Z,36.70
2017-05-17T16:42:09.472Z,36.20
2017-05-17T16:44:38.520Z,35.90
2017-05-17T16:47:08.331Z,35.90
2017-05-17T16:49:38.175Z,35.70
2017-05-17T16:52:07.243Z,36.10
2017-05-17T16:54:37.043Z,36.90
2017-05-17T16:57:06.101Z,37.50
2017-05-17T16:59:35.176Z,37.20
2017-05-17T17:02:04.212Z,37.10
2017-05-17T17:04:33.279Z,36.60
2017-05-17T17:07:02.355Z,36.70
2017-05-17T17:09:32.218Z,37.10
2017-05-17T17:12:01.971Z,37.70
2017-05-17T17:14:31.007Z,37.60
2017-05-17T17:17:00.165Z,36.90
2017-05-17T17:19:29.466Z,36.80
2017-05-17T17:21:58.527Z,36.60
2017-05-17T17:24:27.614Z,36.80
2017-05-17T17:26:56.956Z,36.70
2017-05-17T17:29:26.052Z,36.90
2017-05-17T17:31:55.352Z,36.60
2017-05-17T17:34:25.171Z,35.90
2017-05-17T17:36:54.203Z,35.10
2017-05-17T17:39:23.284Z,35.10
2017-05-17T17:41:54.112Z,34.10
2017-05-17T17:47:10.643Z,33.60
2017-05-17T17:49:39.676Z,33.90
2017-05-17T17:52:08.811Z,34.20
2017-05-17T17:54:37.847Z,33.80
2017-05-17T17:57:06.932Z,33.00
2017-05-17T17:59:35.975Z,32.10
2017-05-17T18:02:05.787Z,32.00
2017-05-17T18:04:35.616Z,32.20
2017-05-17T18:07:04.719Z,32.20
2017-05-17T18:09:33.796Z,32.30
2017-05-17T18:12:04.077Z,31.80
2017-05-17T18:14:33.157Z,30.80
2017-05-17T18:17:02.219Z,30.40
2017-05-17T18:19:31.296Z,30.10
2017-05-17T18:22:01.010Z,29.80
2017-05-17T18:24:30.829Z,29.40
2017-05-17T18:26:59.863Z,28.90
2017-05-17T18:29:28.936Z,28.10
2017-05-17T18:31:58.004Z,27.50
2017-05-17T18:34:27.035Z,27.00
2017-05-17T18:36:56.099Z,26.70
2017-05-17T18:39:25.933Z,26.40
2017-05-17T18:41:54.990Z,26.20
2017-05-17T18:44:24.071Z,26.10
2017-05-17T18:46:53.308Z,25.90
2017-05-17T18:49:22.415Z,25.90
2017-05-17T18:51:51.448Z,25.70
2017-05-17T18:54:20.507Z,25.60
2017-05-17T18:56:49.578Z,25.50
2017-05-17T18:59:18.650Z,25.40
2017-05-17T19:01:47.721Z,25.20
2017-05-17T19:04:16.877Z,25.10
2017-05-17T19:06:46.655Z,24.90
2017-05-17T19:09:16.006Z,24.80
2017-05-17T19:11:45.079Z,24.70
2017-05-17T19:14:14.858Z,24.50
2017-05-17T19:16:43.922Z,24.40
2017-05-17T19:19:13.013Z,24.30
2017-05-17T19:21:42.052Z,24.30
2017-05-17T19:24:11.174Z,24.10
2017-05-17T19:26:40.493Z,24.00
2017-05-17T19:29:09.533Z,24.00
2017-05-17T19:31:38.612Z,23.90
2017-05-17T19:34:07.647Z,23.80
2017-05-17T19:36:36.730Z,23.70
2017-05-17T19:39:05.805Z,23.60
2017-05-17T19:41:34.845Z,23.50
2017-05-17T19:44:04.711Z,23.40
2017-05-17T19:46:33.777Z,23.30
2017-05-17T19:49:02.850Z,23.30
2017-05-17T19:51:31.928Z,23.20
2017-05-17T19:54:00.963Z,23.10
2017-05-17T19:56:30.059Z,23.10
2017-05-17T19:58:59.132Z,23.00
2017-05-17T20:01:28.909Z,23.00
2017-05-17T20:03:58.002Z,22.90
2017-05-17T20:06:27.036Z,22.80
2017-05-17T20:08:57.177Z,22.70
2017-05-17T20:11:26.216Z,22.60
2017-05-17T20:13:55.283Z,22.50
2017-05-17T20:16:24.351Z,22.30
2017-05-17T20:18:53.443Z,22.30
2017-05-17T20:21:22.595Z,22.30
2017-05-17T20:23:51.654Z,22.30
2017-05-17T20:26:20.726Z,22.20
2017-05-17T20:28:50.551Z,22.10
2017-05-17T20:31:19.592Z,22.10
2017-05-17T20:33:48.882Z,22.10
2017-05-17T20:36:18.255Z,22.00
2017-05-17T20:38:48.077Z,22.00
2017-05-17T20:41:17.109Z,21.80
2017-05-17T20:43:46.230Z,21.80
2017-05-17T20:46:15.304Z,21.80
2017-05-17T20:48:44.347Z,21.70
2017-05-17T20:51:13.442Z,21.60
2017-05-17T20:53:42.525Z,21.50
2017-05-17T20:58:41.228Z,21.50
2017-05-17T21:01:11.054Z,21.30
2017-05-17T21:03:40.089Z,21.30
2017-05-17T21:06:09.170Z,21.20
2017-05-17T21:08:38.550Z,21.20
2017-05-17T21:11:07.644Z,21.10
2017-05-17T21:13:36.704Z,21.00
2017-05-17T21:16:06.523Z,20.90
2017-05-17T21:18:35.611Z,20.90
2017-05-17T21:21:04.649Z,20.80
2017-05-17T21:23:33.705Z,20.80
2017-05-17T21:26:02.821Z,20.80
2017-05-17T21:28:32.598Z,20.70
2017-05-17T21:31:01.699Z,20.70
2017-05-17T21:33:30.741Z,20.70
2017-05-17T21:35:59.796Z,20.70
2017-05-17T21:38:28.890Z,20.70
2017-05-17T21:40:57.927Z,20.60
2017-05-17T21:43:26.987Z,20.60
2017-05-17T21:45:56.316Z,20.60
2017-05-17T21:48:25.357Z,20.50
2017-05-17T21:50:54.423Z,20.30
2017-05-17T21:53:23.482Z,20.30
2017-05-17T21:55:53.292Z,20.30
2017-05-17T21:58:23.068Z,20.30
2017-05-17T22:00:53.513Z,20.30
2017-05-17T22:03:23.251Z,20.20
2017-05-17T22:05:53.057Z,20.10
2017-05-17T22:08:22.098Z,20.10
2017-05-17T22:10:51.466Z,20.00
2017-05-17T22:13:20.499Z,20.00
2017-05-17T22:15:49.572Z,19.90
2017-05-17T22:18:18.627Z,19.90
2017-05-17T22:20:47.695Z,19.80
2017-05-17T22:23:16.763Z,19.70
2017-05-17T22:25:45.805Z,19.70
2017-05-17T22:28:14.872Z,19.70
2017-05-17T22:30:43.934Z,19.60
2017-05-17T22:33:13.010Z,19.60
2017-05-17T22:35:42.090Z,19.60
2017-05-17T22:38:11.127Z,19.60
2017-05-17T22:40:40.197Z,19.50
2017-05-17T22:43:09.991Z,19.50
2017-05-17T22:45:39.037Z,19.60
2017-05-17T22:48:08.108Z,19.40
2017-05-17T22:50:37.885Z,19.30
2017-05-17T22:53:06.959Z,19.30
2017-05-17T22:55:36.042Z,19.30
2017-05-17T22:58:05.087Z,19.30
2017-05-17T23:00:34.164Z,19.20
2017-05-17T23:03:03.511Z,19.20
2017-05-17T23:05:32.581Z,19.20
2017-05-17T23:08:01.660Z,19.10
2017-05-17T23:10:30.696Z,19.10
2017-05-17T23:12:59.775Z,19.10
2017-05-17T23:15:29.553Z,19.00
2017-05-17T23:17:58.631Z,18.90
2017-05-17T23:20:27.673Z,18.90
2017-05-17T23:22:56.731Z,18.90
2017-05-17T23:25:26.094Z,18.90
2017-05-17T23:27:55.121Z,18.90
2017-05-17T23:30:24.204Z,18.80
2017-05-17T23:32:53.227Z,18.80
2017-05-17T23:35:22.321Z,18.70
2017-05-17T23:37:51.417Z,18.70
2017-05-17T23:40:20.446Z,18.80
2017-05-17T23:42:50.491Z,18.80
2017-05-17T23:45:18.743Z,18.70
2017-05-17T23:47:48.540Z,18.60
2017-05-17T23:50:17.607Z,18.60
2017-05-17T23:52:46.648Z,18.60
2017-05-17T23:55:16.465Z,18.50
2017-05-17T23:57:46.488Z,18.50
